createdAt,value
2018-08-10T00:01:24.577Z,12.20
2018-08-10T00:03:54.278Z,12.63
2018-08-10T00:06:23.895Z,12.63
2018-08-10T00:08:53.532Z,12.20
2018-08-10T00:11:23.253Z,12.63
2018-08-10T00:13:52.974Z,13.47
2018-08-10T00:16:22.593Z,13.60
2018-08-10T00:18:52.278Z,14.57
2018-08-10T00:21:21.981Z,13.20
2018-08-10T00:23:51.540Z,12.43
2018-08-10T00:26:21.202Z,13.27
2018-08-10T00:28:50.761Z,12.87
2018-08-10T00:31:20.325Z,12.27
2018-08-10T00:33:50.000Z,12.03
2018-08-10T00:36:19.604Z,12.97
2018-08-10T00:38:49.259Z,12.93
2018-08-10T00:41:18.884Z,13.13
2018-08-10T00:43:48.520Z,13.33
2018-08-10T00:46:18.124Z,14.80
2018-08-10T00:48:47.849Z,13.57
2018-08-10T00:51:17.868Z,13.80
2018-08-10T00:53:47.809Z,14.57
2018-08-10T00:56:17.377Z,15.00
2018-08-10T00:58:46.972Z,13.80
2018-08-10T01:01:16.646Z,14.30
2018-08-10T01:03:46.272Z,14.30
2018-08-10T01:06:15.907Z,16.60
2018-08-10T01:08:45.575Z,21.07
2018-08-10T01:11:15.180Z,15.73
2018-08-10T01:13:44.824Z,17.20
2018-08-10T01:16:14.471Z,16.00
2018-08-10T01:18:44.153Z,15.80
2018-08-10T01:21:13.740Z,15.27
2018-08-10T01:23:43.366Z,16.00
2018-08-10T01:26:13.048Z,16.73
2018-08-10T01:30:58.219Z,18.30
2018-08-10T01:33:27.844Z,16.20
2018-08-10T01:35:57.507Z,15.40
2018-08-10T01:38:27.209Z,17.87
2018-08-10T01:40:56.865Z,18.17
2018-08-10T01:43:26.488Z,17.43
2018-08-10T01:45:56.149Z,17.80
2018-08-10T01:48:25.771Z,21.10
2018-08-10T01:50:55.319Z,18.77
2018-08-10T01:53:24.975Z,20.10
2018-08-10T01:55:54.625Z,17.70
2018-08-10T01:58:24.254Z,18.53
2018-08-10T02:00:53.814Z,20.90
2018-08-10T02:03:23.383Z,19.17
2018-08-10T02:05:53.022Z,19.77
2018-08-10T02:08:22.612Z,18.97
2018-08-10T02:10:52.360Z,19.07
2018-08-10T02:13:21.974Z,19.37
2018-08-10T02:15:51.538Z,19.73
2018-08-10T02:18:21.218Z,19.77
2018-08-10T02:20:50.821Z,19.67
2018-08-10T02:23:20.417Z,21.50
2018-08-10T02:25:50.019Z,18.37
2018-08-10T02:28:19.637Z,18.37
2018-08-10T02:30:49.297Z,16.93
2018-08-10T02:33:18.876Z,16.83
2018-08-10T02:35:48.463Z,17.50
2018-08-10T02:38:18.043Z,18.60
2018-08-10T02:40:47.605Z,16.47
2018-08-10T02:43:17.197Z,16.67
2018-08-10T02:45:46.792Z,16.07
2018-08-10T02:48:16.491Z,17.50
2018-08-10T02:50:46.145Z,18.77
2018-08-10T02:53:15.750Z,16.87
2018-08-10T02:55:45.307Z,16.60
2018-08-10T02:58:14.923Z,17.67
2018-08-10T03:00:44.551Z,16.10
2018-08-10T03:03:14.485Z,17.67
2018-08-10T03:05:44.115Z,19.27
2018-08-10T03:08:13.853Z,17.93
2018-08-10T03:10:43.470Z,17.77
2018-08-10T03:13:13.136Z,18.83
2018-08-10T03:15:42.748Z,16.67
2018-08-10T03:18:12.398Z,18.17
2018-08-10T03:20:42.008Z,17.07
2018-08-10T03:23:11.602Z,15.53
2018-08-10T03:25:41.184Z,14.30
2018-08-10T03:28:10.842Z,14.73
2018-08-10T03:30:40.448Z,15.57
2018-08-10T03:33:16.412Z,15.03
2018-08-10T03:35:46.016Z,15.50
2018-08-10T03:38:15.629Z,15.80
2018-08-10T03:40:45.271Z,16.00
2018-08-10T03:43:14.872Z,15.70
2018-08-10T03:45:44.476Z,15.37
2018-08-10T03:48:14.115Z,16.10
2018-08-10T03:50:43.709Z,16.23
2018-08-10T03:53:13.341Z,16.07
2018-08-10T03:55:42.890Z,15.87
2018-08-10T03:58:12.470Z,16.00
2018-08-10T04:00:42.048Z,16.57
2018-08-10T04:03:11.741Z,15.37
2018-08-10T04:05:41.352Z,15.93
2018-08-10T04:08:10.957Z,14.93
2018-08-10T04:10:46.973Z,15.70
2018-08-10T04:13:16.557Z,16.07
2018-08-10T04:15:46.209Z,16.17
2018-08-10T04:18:15.814Z,16.93
2018-08-10T04:20:45.413Z,16.07
2018-08-10T04:23:15.081Z,15.43
2018-08-10T04:25:44.642Z,16.63
2018-08-10T04:28:14.290Z,15.37
2018-08-10T04:30:43.933Z,15.80
2018-08-10T04:33:13.523Z,15.40
2018-08-10T04:35:43.132Z,15.77
2018-08-10T04:38:12.668Z,14.63
2018-08-10T04:40:42.336Z,21.17
2018-08-10T04:43:11.987Z,17.17
2018-08-10T04:45:41.552Z,18.80
2018-08-10T04:48:11.219Z,15.60
2018-08-10T04:50:40.809Z,18.40
2018-08-10T04:53:16.450Z,15.40
2018-08-10T04:55:50.852Z,17.60
2018-08-10T04:58:20.548Z,18.13
2018-08-10T05:00:50.306Z,18.60
2018-08-10T05:03:19.872Z,16.37
2018-08-10T05:05:49.528Z,16.23
2018-08-10T05:08:19.140Z,15.50
2018-08-10T05:10:48.787Z,17.30
2018-08-10T05:13:18.388Z,15.73
2018-08-10T05:15:48.137Z,14.90
2018-08-10T05:18:17.747Z,15.27
2018-08-10T05:20:47.382Z,15.87
2018-08-10T05:23:16.973Z,15.03
2018-08-10T05:25:46.586Z,16.53
2018-08-10T05:28:16.299Z,14.67
2018-08-10T05:30:45.864Z,14.13
2018-08-10T05:33:15.530Z,14.83
2018-08-10T05:35:45.179Z,16.13
2018-08-10T05:38:14.857Z,17.90
2018-08-10T05:40:44.375Z,15.13
2018-08-10T05:43:14.067Z,15.33
2018-08-10T05:45:43.652Z,15.10
2018-08-10T05:48:13.258Z,15.50
2018-08-10T05:50:42.927Z,16.40
2018-08-10T05:53:12.508Z,15.90
2018-08-10T05:55:42.114Z,15.13
2018-08-10T05:58:11.716Z,17.40
2018-08-10T06:00:41.287Z,15.70
2018-08-10T06:03:10.890Z,17.00
2018-08-10T06:05:40.459Z,18.57
2018-08-10T06:08:10.029Z,16.80
2018-08-10T06:10:39.695Z,16.60
2018-08-10T06:13:09.388Z,16.47
2018-08-10T06:15:39.001Z,16.97
2018-08-10T06:18:08.665Z,18.93
2018-08-10T06:20:38.248Z,18.50
2018-08-10T06:23:07.867Z,18.93
2018-08-10T06:25:38.402Z,20.27
2018-08-10T06:28:08.120Z,21.00
2018-08-10T06:30:37.706Z,20.50
2018-08-10T06:33:07.407Z,20.13
2018-08-10T06:35:37.039Z,20.47
2018-08-10T06:38:06.751Z,21.50
2018-08-10T06:40:36.426Z,22.43
2018-08-10T06:43:06.144Z,24.07
2018-08-10T06:45:35.690Z,22.27
2018-08-10T06:48:05.380Z,24.40
2018-08-10T06:50:34.971Z,25.60
2018-08-10T06:53:04.582Z,27.63
2018-08-10T06:55:34.209Z,23.27
2018-08-10T06:58:03.794Z,24.23
2018-08-10T07:00:33.574Z,22.43
2018-08-10T07:03:03.173Z,25.30
2018-08-10T07:05:32.745Z,24.27
2018-08-10T07:08:02.320Z,22.17
2018-08-10T07:10:32.083Z,25.23
2018-08-10T07:13:01.668Z,23.43
2018-08-10T07:15:31.310Z,23.87
2018-08-10T07:18:00.988Z,22.67
2018-08-10T07:20:30.601Z,23.90
2018-08-10T07:23:00.185Z,24.27
2018-08-10T07:25:29.779Z,24.50
2018-08-10T07:27:59.453Z,21.83
2018-08-10T07:30:29.043Z,24.90
2018-08-10T07:32:58.597Z,22.87
2018-08-10T07:35:28.174Z,24.13
2018-08-10T07:37:57.757Z,25.67
2018-08-10T07:40:27.458Z,25.00
2018-08-10T07:42:57.120Z,20.67
2018-08-10T07:45:26.696Z,19.50
2018-08-10T07:47:56.273Z,20.27
2018-08-10T07:50:25.845Z,23.57
2018-08-10T07:52:55.393Z,24.07
2018-08-10T07:55:25.008Z,24.17
2018-08-10T07:57:54.620Z,23.00
2018-08-10T08:00:24.334Z,22.70
2018-08-10T08:02:53.889Z,22.13
2018-08-10T08:05:23.508Z,23.35
2018-08-10T08:07:53.180Z,23.05
2018-08-10T08:10:23.055Z,23.75
2018-08-10T08:12:52.730Z,22.02
2018-08-10T08:15:22.360Z,22.48
2018-08-10T08:17:52.141Z,24.45
2018-08-10T08:20:21.765Z,21.37
2018-08-10T08:23:03.868Z,23.33
2018-08-10T08:25:33.511Z,23.05
2018-08-10T08:28:03.173Z,23.90
2018-08-10T08:30:32.929Z,22.57
2018-08-10T08:33:02.535Z,23.47
2018-08-10T08:35:32.246Z,19.67
2018-08-10T08:38:12.486Z,23.27
2018-08-10T08:40:42.116Z,22.13
2018-08-10T08:43:11.832Z,21.80
2018-08-10T08:45:54.145Z,19.30
2018-08-10T08:48:24.047Z,23.90
2018-08-10T08:50:59.289Z,20.12
2018-08-10T08:53:28.922Z,20.15
2018-08-10T08:56:06.536Z,23.05
2018-08-10T08:58:36.968Z,21.90
2018-08-10T09:01:07.517Z,21.68
2018-08-10T09:03:47.948Z,20.40
2018-08-10T09:06:17.545Z,22.02
2018-08-10T09:08:57.919Z,21.87
2018-08-10T09:11:27.593Z,21.68
2018-08-10T09:15:01.866Z,22.67
2018-08-10T09:17:31.495Z,23.35
2018-08-10T09:20:01.244Z,22.85
2018-08-10T09:22:31.350Z,24.32
2018-08-10T09:25:01.226Z,21.48
2018-08-10T09:27:30.952Z,21.55
2018-08-10T09:30:00.635Z,20.08
2018-08-10T09:32:30.288Z,22.13
2018-08-10T09:34:59.919Z,21.37
2018-08-10T09:37:29.539Z,20.32
2018-08-10T09:39:59.205Z,20.52
2018-08-10T09:42:28.864Z,21.62
2018-08-10T09:44:58.583Z,20.95
2018-08-10T09:47:28.182Z,20.80
2018-08-10T09:49:57.848Z,21.25
2018-08-10T09:52:27.525Z,23.67
2018-08-10T09:55:31.221Z,36.80
2018-08-10T09:58:09.226Z,22.43
2018-08-10T10:00:44.148Z,24.75
2018-08-10T10:03:17.998Z,24.70
2018-08-10T10:05:48.710Z,22.67
2018-08-10T10:08:18.972Z,24.25
2018-08-10T10:10:48.640Z,23.73
2018-08-10T10:13:18.455Z,22.10
2018-08-10T10:15:48.102Z,22.55
2018-08-10T10:18:18.609Z,27.02
2018-08-10T10:20:48.939Z,24.45
2018-08-10T10:23:18.644Z,24.15
2018-08-10T10:25:48.244Z,20.77
2018-08-10T10:28:17.791Z,19.02
2018-08-10T10:30:47.628Z,19.40
2018-08-10T10:33:17.308Z,20.12
2018-08-10T10:35:46.867Z,20.75
2018-08-10T10:38:16.581Z,19.82
2018-08-10T10:40:46.253Z,19.27
2018-08-10T10:43:15.811Z,21.23
2018-08-10T10:45:45.426Z,20.65
2018-08-10T10:48:15.013Z,19.98
2018-08-10T10:50:44.596Z,17.95
2018-08-10T10:53:14.345Z,21.02
2018-08-10T10:55:44.038Z,19.20
2018-08-10T10:58:13.626Z,18.87
2018-08-10T11:00:43.249Z,20.77
2018-08-10T11:03:12.864Z,19.75
2018-08-10T11:05:42.528Z,19.57
2018-08-10T11:08:12.151Z,18.10
2018-08-10T11:10:41.719Z,17.23
2018-08-10T11:13:11.350Z,16.52
2018-08-10T11:15:41.055Z,15.70
2018-08-10T11:18:10.793Z,16.70
2018-08-10T11:20:40.393Z,18.95
2018-08-10T11:23:10.027Z,12.50
2018-08-10T11:25:39.695Z,12.07
2018-08-10T11:28:09.264Z,12.33
2018-08-10T11:30:38.887Z,12.30
2018-08-10T11:33:08.479Z,11.03
2018-08-10T11:35:38.095Z,10.63
2018-08-10T11:38:07.765Z,10.70
2018-08-10T11:40:37.346Z,9.33
2018-08-10T11:43:07.022Z,11.95
2018-08-10T11:45:36.812Z,10.23
2018-08-10T11:48:06.513Z,10.05
2018-08-10T11:50:36.200Z,12.45
2018-08-10T11:53:05.874Z,9.53
2018-08-10T11:55:35.591Z,9.90
2018-08-10T11:58:05.291Z,9.55
2018-08-10T12:00:34.908Z,11.40
2018-08-10T12:03:04.694Z,15.20
2018-08-10T12:05:34.269Z,10.72
2018-08-10T12:08:03.522Z,18.95
2018-08-10T12:10:33.252Z,10.98
2018-08-10T12:13:02.881Z,9.75
2018-08-10T12:15:32.593Z,7.60
2018-08-10T12:18:02.233Z,9.13
2018-08-10T12:20:31.969Z,9.35
2018-08-10T12:23:01.594Z,13.65
2018-08-10T12:25:31.213Z,8.55
2018-08-10T12:28:00.776Z,9.03
2018-08-10T12:30:30.374Z,7.08
2018-08-10T12:33:00.073Z,7.60
2018-08-10T12:35:29.694Z,7.55
2018-08-10T12:37:59.399Z,7.15
2018-08-10T12:40:28.979Z,10.25
2018-08-10T12:42:58.570Z,6.17
2018-08-10T12:45:28.474Z,7.67
2018-08-10T12:47:58.093Z,6.20
2018-08-10T12:50:27.747Z,7.35
2018-08-10T12:52:57.424Z,9.98
2018-08-10T12:55:26.972Z,6.47
2018-08-10T12:57:56.601Z,6.58
2018-08-10T13:00:26.324Z,7.12
2018-08-10T13:02:56.072Z,6.72
2018-08-10T13:05:25.645Z,8.78
2018-08-10T13:07:55.302Z,4.67
2018-08-10T13:10:24.953Z,8.48
2018-08-10T13:12:54.573Z,5.12
2018-08-10T13:15:24.260Z,6.50
2018-08-10T13:17:53.864Z,5.83
2018-08-10T13:20:23.358Z,5.30
2018-08-10T13:22:52.973Z,4.03
2018-08-10T13:25:22.674Z,4.00
2018-08-10T13:27:52.390Z,3.72
2018-08-10T13:30:21.993Z,8.93
2018-08-10T13:32:51.669Z,5.47
2018-08-10T13:35:21.306Z,5.30
2018-08-10T13:37:50.964Z,5.40
2018-08-10T13:40:20.589Z,3.25
2018-08-10T13:42:50.206Z,5.83
2018-08-10T13:45:19.857Z,5.55
2018-08-10T13:47:49.529Z,6.25
2018-08-10T13:50:19.259Z,5.55
2018-08-10T13:52:48.918Z,7.05
2018-08-10T13:55:19.872Z,11.53
2018-08-10T13:57:50.138Z,7.80
2018-08-10T14:00:22.727Z,9.58
2018-08-10T14:02:53.992Z,7.58
2018-08-10T14:05:24.410Z,4.90
2018-08-10T14:07:54.762Z,5.47
2018-08-10T14:10:24.412Z,4.00
2018-08-10T14:12:54.043Z,8.00
2018-08-10T14:15:23.677Z,5.30
2018-08-10T14:17:53.322Z,6.17
2018-08-10T14:20:22.867Z,6.35
2018-08-10T14:22:52.549Z,4.80
2018-08-10T14:25:22.176Z,4.28
2018-08-10T14:27:51.919Z,4.67
2018-08-10T14:30:21.509Z,5.55
2018-08-10T14:32:51.317Z,6.10
2018-08-10T14:35:21.078Z,6.40
2018-08-10T14:37:50.676Z,7.83
2018-08-10T14:40:20.436Z,8.98
2018-08-10T14:42:50.049Z,6.10
2018-08-10T14:45:19.707Z,7.47
2018-08-10T14:47:49.408Z,40.80
2018-08-10T14:50:18.950Z,5.00
2018-08-10T14:52:48.681Z,9.08
2018-08-10T14:55:18.442Z,5.65
2018-08-10T14:57:48.057Z,4.25
2018-08-10T15:00:19.562Z,9.58
2018-08-10T15:02:49.468Z,8.25
2018-08-10T15:05:19.318Z,9.05
2018-08-10T15:07:48.949Z,5.42
2018-08-10T15:10:18.803Z,8.38
2018-08-10T15:12:48.671Z,10.23
2018-08-10T15:15:19.465Z,5.47
2018-08-10T15:17:49.418Z,7.85
2018-08-10T15:20:20.420Z,7.90
2018-08-10T15:22:50.219Z,5.12
2018-08-10T15:25:19.798Z,6.90
2018-08-10T15:27:49.468Z,8.55
2018-08-10T15:30:19.785Z,6.67
2018-08-10T15:32:49.343Z,5.45
2018-08-10T15:35:18.928Z,6.62
2018-08-10T15:37:48.622Z,4.67
2018-08-10T15:40:19.624Z,6.42
2018-08-10T15:42:49.285Z,6.50
2018-08-10T15:45:19.290Z,6.80
2018-08-10T15:47:49.021Z,6.45
2018-08-10T15:50:18.732Z,6.72
2018-08-10T15:52:48.395Z,5.50
2018-08-10T15:55:17.945Z,9.40
2018-08-10T15:57:47.630Z,5.08
2018-08-10T16:00:24.870Z,9.05
2018-08-10T16:02:54.536Z,6.97
2018-08-10T16:05:24.188Z,7.83
2018-08-10T16:07:53.858Z,6.97
2018-08-10T16:10:23.688Z,6.70
2018-08-10T16:12:53.328Z,7.08
2018-08-10T16:15:22.966Z,7.80
2018-08-10T16:17:52.539Z,4.67
2018-08-10T16:20:23.009Z,7.37
2018-08-10T16:22:52.720Z,5.25
2018-08-10T16:25:22.375Z,5.10
2018-08-10T16:27:51.982Z,5.35
2018-08-10T16:30:21.674Z,4.85
2018-08-10T16:32:51.311Z,5.60
2018-08-10T16:35:20.991Z,4.20
2018-08-10T16:37:50.682Z,4.45
2018-08-10T16:40:20.803Z,4.80
2018-08-10T16:42:50.470Z,8.35
2018-08-10T16:45:20.110Z,5.75
2018-08-10T16:47:49.875Z,11.83
2018-08-10T16:50:20.141Z,6.40
2018-08-10T16:52:49.814Z,4.80
2018-08-10T16:55:20.591Z,6.58
2018-08-10T16:57:50.717Z,7.42
2018-08-10T17:00:21.870Z,3.95
2018-08-10T17:02:51.474Z,7.58
2018-08-10T17:05:21.192Z,6.42
2018-08-10T17:07:50.697Z,7.05
2018-08-10T17:10:20.338Z,4.87
2018-08-10T17:12:49.929Z,6.20
2018-08-10T17:15:20.485Z,6.53
2018-08-10T17:17:50.083Z,7.25
2018-08-10T17:20:19.878Z,5.87
2018-08-10T17:22:49.468Z,10.70
2018-08-10T17:25:20.596Z,5.53
2018-08-10T17:27:50.356Z,7.40
2018-08-10T17:30:20.771Z,6.62
2018-08-10T17:32:50.427Z,6.25
2018-08-10T17:35:20.034Z,4.85
2018-08-10T17:37:49.648Z,5.22
2018-08-10T17:40:19.262Z,5.70
2018-08-10T17:42:49.016Z,8.93
2018-08-10T17:45:18.940Z,8.55
2018-08-10T17:47:48.644Z,6.37
2018-08-10T17:50:20.301Z,6.22
2018-08-10T17:52:51.345Z,7.15
2018-08-10T17:55:21.465Z,6.20
2018-08-10T17:57:51.246Z,6.70
2018-08-10T18:00:25.591Z,7.37
2018-08-10T18:02:55.166Z,6.62
2018-08-10T18:05:24.871Z,5.05
2018-08-10T18:07:54.465Z,7.97
2018-08-10T18:10:24.091Z,5.45
2018-08-10T18:12:53.760Z,7.12
2018-08-10T18:15:23.603Z,7.30
2018-08-10T18:17:53.356Z,8.98
2018-08-10T18:20:23.565Z,9.23
2018-08-10T18:22:53.651Z,6.92
2018-08-10T18:25:23.778Z,6.85
2018-08-10T18:27:53.459Z,6.60
2018-08-10T18:30:25.703Z,10.63
2018-08-10T18:32:55.421Z,7.53
2018-08-10T18:35:25.266Z,9.23
2018-08-10T18:37:55.408Z,6.65
2018-08-10T18:40:25.945Z,8.28
2018-08-10T18:42:56.391Z,8.93
2018-08-10T18:45:26.703Z,8.43
2018-08-10T18:47:57.224Z,14.28
2018-08-10T18:50:27.136Z,8.55
2018-08-10T18:52:57.401Z,10.98
2018-08-10T18:55:27.561Z,11.73
2018-08-10T18:57:57.697Z,10.90
2018-08-10T19:00:28.374Z,11.53
2018-08-10T19:02:58.316Z,12.33
2018-08-10T19:05:28.518Z,11.88
2018-08-10T19:07:58.587Z,11.15
2018-08-10T19:10:29.329Z,9.08
2018-08-10T19:12:59.410Z,13.25
2018-08-10T19:15:29.545Z,22.10
2018-08-10T19:17:59.655Z,22.42
2018-08-10T19:20:30.002Z,18.48
2018-08-10T19:23:00.207Z,13.65
2018-08-10T19:25:30.515Z,12.30
2018-08-10T19:28:00.699Z,10.68
2018-08-10T19:30:31.150Z,12.07
2018-08-10T19:33:01.481Z,14.23
2018-08-10T19:35:31.911Z,9.78
2018-08-10T19:38:01.857Z,9.83
2018-08-10T19:40:32.214Z,14.20
2018-08-10T19:43:02.591Z,10.00
2018-08-10T19:45:32.905Z,8.48
2018-08-10T19:48:03.272Z,9.18
2018-08-10T19:50:34.716Z,9.38
2018-08-10T19:53:05.042Z,10.15
2018-08-10T19:55:35.545Z,9.10
2018-08-10T19:58:05.853Z,9.33
2018-08-10T20:00:36.260Z,13.08
2018-08-10T20:03:06.844Z,9.13
2018-08-10T20:05:37.110Z,10.72
2018-08-10T20:08:07.344Z,8.90
2018-08-10T20:10:37.723Z,9.55
2018-08-10T20:13:08.071Z,8.88
2018-08-10T20:15:38.419Z,7.97
2018-08-10T20:18:08.705Z,11.05
2018-08-10T20:20:39.011Z,10.35
2018-08-10T20:23:09.366Z,8.40
2018-08-10T20:25:39.671Z,7.30
2018-08-10T20:28:09.962Z,9.55
2018-08-10T20:30:40.252Z,8.97
2018-08-10T20:33:10.240Z,12.60
2018-08-10T20:35:40.373Z,10.20
2018-08-10T20:38:10.229Z,11.97
2018-08-10T20:40:40.153Z,11.45
2018-08-10T20:43:09.917Z,10.40
2018-08-10T20:45:39.967Z,9.40
2018-08-10T20:48:09.834Z,12.13
2018-08-10T20:50:40.327Z,8.57
2018-08-10T20:53:10.023Z,12.73
2018-08-10T20:55:39.668Z,7.90
2018-08-10T20:58:09.310Z,8.27
2018-08-10T21:00:38.975Z,9.90
2018-08-10T21:03:08.650Z,13.70
2018-08-10T21:05:38.330Z,8.67
2018-08-10T21:08:07.916Z,10.10
2018-08-10T21:10:37.535Z,8.55
2018-08-10T21:13:07.238Z,8.73
2018-08-10T21:15:36.856Z,10.38
2018-08-10T21:18:06.568Z,10.58
2018-08-10T21:20:36.191Z,8.53
2018-08-10T21:23:05.822Z,9.60
2018-08-10T21:25:35.484Z,10.45
2018-08-10T21:28:05.226Z,9.33
2018-08-10T21:30:34.836Z,7.83
2018-08-10T21:33:04.596Z,9.83
2018-08-10T21:35:34.304Z,11.13
2018-08-10T21:38:03.921Z,9.40
2018-08-10T21:40:33.638Z,12.83
2018-08-10T21:43:03.293Z,12.93
2018-08-10T21:45:32.888Z,11.10
2018-08-10T21:48:02.647Z,8.67
2018-08-10T21:50:32.302Z,11.40
2018-08-10T21:53:01.873Z,9.53
2018-08-10T21:55:31.524Z,8.00
2018-08-10T21:58:01.166Z,8.03
2018-08-10T22:00:39.760Z,10.17
2018-08-10T22:03:10.816Z,13.40
2018-08-10T22:05:40.897Z,16.80
2018-08-10T22:08:10.570Z,12.13
2018-08-10T22:10:40.526Z,9.93
2018-08-10T22:13:14.275Z,11.80
2018-08-10T22:15:48.797Z,9.30
2018-08-10T22:18:23.686Z,9.20
2018-08-10T22:20:53.728Z,12.53
2018-08-10T22:23:23.360Z,13.97
2018-08-10T22:25:53.081Z,10.43
2018-08-10T22:28:22.655Z,13.60
2018-08-10T22:30:52.287Z,9.90
2018-08-10T22:33:22.008Z,13.83
2018-08-10T22:35:51.531Z,10.50
2018-08-10T22:38:21.158Z,13.70
2018-08-10T22:40:50.711Z,11.05
2018-08-10T22:43:20.302Z,12.93
2018-08-10T22:45:49.892Z,12.90
2018-08-10T22:48:19.666Z,12.28
2018-08-10T22:50:49.240Z,12.53
2018-08-10T22:53:18.834Z,10.15
2018-08-10T22:55:48.431Z,13.10
2018-08-10T22:58:18.088Z,9.68
2018-08-10T23:00:47.787Z,12.53
2018-08-10T23:03:17.484Z,11.33
2018-08-10T23:05:47.093Z,10.20
2018-08-10T23:08:16.766Z,12.60
2018-08-10T23:10:46.349Z,10.50
2018-08-10T23:13:16.010Z,10.47
2018-08-10T23:15:45.633Z,9.80
2018-08-10T23:18:15.270Z,11.70
2018-08-10T23:20:44.898Z,10.60
2018-08-10T23:23:14.573Z,15.23
2018-08-10T23:25:44.194Z,11.00
2018-08-10T23:28:13.760Z,13.00
2018-08-10T23:30:43.360Z,11.07
2018-08-10T23:33:12.928Z,10.60
2018-08-10T23:35:42.687Z,9.90
2018-08-10T23:38:12.388Z,9.97
2018-08-10T23:40:42.072Z,10.33
2018-08-10T23:43:11.693Z,13.07
2018-08-10T23:45:41.429Z,13.10
2018-08-10T23:48:10.982Z,12.23
2018-08-10T23:50:40.568Z,13.07
2018-08-10T23:53:10.288Z,10.47
2018-08-10T23:55:39.985Z,13.37
2018-08-10T23:58:09.627Z,14.03
